createdAt,value
2017-04-05T00:00:13.468Z,89.74
2017-04-05T00:01:02.691Z,89.76
2017-04-05T00:01:57.597Z,89.77
2017-04-05T00:02:46.586Z,89.77
2017-04-05T00:03:40.627Z,89.80
2017-04-05T00:04:29.707Z,89.82
2017-04-05T00:05:17.738Z,89.83
2017-04-05T00:06:06.858Z,89.88
2017-04-05T00:07:00.792Z,89.89
2017-04-05T00:08:00.781Z,89.96
2017-04-05T00:09:00.881Z,90.04
2017-04-05T00:09:54.867Z,90.11
2017-04-05T00:10:42.877Z,90.18
2017-04-05T00:11:36.955Z,90.19
2017-04-05T00:12:25.975Z,90.23
2017-04-05T00:13:25.996Z,90.29
2017-04-05T00:14:20.055Z,90.33
2017-04-05T00:15:15.053Z,90.32
2017-04-05T00:16:10.110Z,90.34
2017-04-05T00:17:05.228Z,90.36
2017-04-05T00:17:59.175Z,90.40
2017-04-05T00:18:54.150Z,90.43
2017-04-05T00:19:55.196Z,90.43
2017-04-05T00:20:50.275Z,90.46
2017-04-05T00:21:44.303Z,90.48
2017-04-05T00:22:38.349Z,90.50
2017-04-05T00:23:27.366Z,90.49
2017-04-05T00:24:15.372Z,90.44
2017-04-05T00:25:10.424Z,90.43
2017-04-05T00:25:58.489Z,90.43
2017-04-05T00:26:47.474Z,90.43
2017-04-05T00:27:47.565Z,90.42
2017-04-05T00:28:35.611Z,90.42
2017-04-05T00:29:29.591Z,90.41
2017-04-05T00:30:17.666Z,90.41
2017-04-05T00:31:06.737Z,90.37
2017-04-05T00:32:00.691Z,90.40
2017-04-05T00:32:48.811Z,90.42
2017-04-05T00:33:42.750Z,90.44
2017-04-05T00:34:36.796Z,90.43
2017-04-05T00:35:30.858Z,90.48
2017-04-05T00:36:30.847Z,90.53
2017-04-05T00:37:24.918Z,90.62
2017-04-05T00:38:18.956Z,90.68
2017-04-05T00:39:18.978Z,90.74
2017-04-05T00:40:14.003Z,90.80
2017-04-05T00:41:13.982Z,90.91
2017-04-05T00:42:20.014Z,90.96
2017-04-05T00:43:09.090Z,91.03
2017-04-05T00:44:03.101Z,91.10
2017-04-05T00:44:51.211Z,91.10
2017-04-05T00:45:40.254Z,91.10
2017-04-05T00:46:28.235Z,91.19
2017-04-05T00:47:22.296Z,91.17
2017-04-05T00:48:16.509Z,91.15
2017-04-05T00:49:05.360Z,91.14
2017-04-05T00:49:59.343Z,91.15
2017-04-05T00:50:48.373Z,91.16
2017-04-05T00:51:43.758Z,91.15
2017-04-05T00:52:43.536Z,91.25
2017-04-05T00:53:43.871Z,91.32
2017-04-05T00:54:37.496Z,91.38
2017-04-05T00:55:37.504Z,91.42
2017-04-05T00:56:32.580Z,91.47
2017-04-05T00:57:27.590Z,91.47
2017-04-05T00:58:27.600Z,91.53
2017-04-05T00:59:22.595Z,91.52
2017-04-05T01:00:16.694Z,91.53
2017-04-05T01:01:10.688Z,91.53
2017-04-05T01:02:10.739Z,91.51
2017-04-05T01:02:59.800Z,91.55
2017-04-05T01:03:53.790Z,91.54
2017-04-05T01:04:47.881Z,91.55
2017-04-05T01:05:41.891Z,91.56
2017-04-05T01:06:41.876Z,91.61
2017-04-05T01:07:36.939Z,91.61
2017-04-05T01:08:30.983Z,91.60
2017-04-05T01:09:25.996Z,91.59
2017-04-05T01:10:14.046Z,91.55
2017-04-05T01:11:03.086Z,91.54
2017-04-05T01:11:58.110Z,91.51
2017-04-05T01:12:58.111Z,91.52
2017-04-05T01:13:58.151Z,91.59
2017-04-05T01:14:58.176Z,91.66
2017-04-05T01:15:52.180Z,91.72
2017-04-05T01:16:41.250Z,91.73
2017-04-05T01:17:30.311Z,91.78
2017-04-05T01:18:24.280Z,91.81
2017-04-05T01:19:12.372Z,91.82
2017-04-05T01:20:00.467Z,91.87
2017-04-05T01:21:00.412Z,91.85
2017-04-05T01:21:55.455Z,91.84
2017-04-05T01:22:50.459Z,91.86
2017-04-05T01:23:45.453Z,91.87
2017-04-05T01:24:45.564Z,91.87
2017-04-05T01:25:39.580Z,91.91
2017-04-05T01:26:33.573Z,91.95
2017-04-05T01:27:27.636Z,91.94
2017-04-05T01:28:16.673Z,91.93
2017-04-05T01:29:22.687Z,91.91
2017-04-05T01:30:16.710Z,91.95
2017-04-05T01:31:10.771Z,91.93
2017-04-05T01:32:05.789Z,91.93
2017-04-05T01:33:05.793Z,91.97
2017-04-05T01:34:00.827Z,92.01
2017-04-05T01:34:54.898Z,92.07
2017-04-05T01:35:55.877Z,92.14
2017-04-05T01:36:49.986Z,92.14
2017-04-05T01:37:49.938Z,92.17
2017-04-05T01:38:43.961Z,92.22
2017-04-05T01:39:43.964Z,92.23
2017-04-05T01:40:39.001Z,92.27
2017-04-05T01:41:33.076Z,92.25
2017-04-05T01:42:28.080Z,92.24
2017-04-05T01:43:22.111Z,92.28
2017-04-05T01:44:17.153Z,92.27
2017-04-05T01:45:11.198Z,92.26
2017-04-05T01:46:00.200Z,92.30
2017-04-05T01:46:49.266Z,92.29
2017-04-05T01:47:38.323Z,92.28
2017-04-05T01:48:33.309Z,92.26
2017-04-05T01:49:33.373Z,92.27
2017-04-05T01:50:28.386Z,92.28
2017-04-05T01:51:23.403Z,92.26
2017-04-05T01:52:17.473Z,92.22
2017-04-05T01:53:11.537Z,92.21
2017-04-05T01:54:06.507Z,92.18
2017-04-05T01:55:01.456Z,92.16
2017-04-05T01:55:55.561Z,92.22
2017-04-05T01:56:55.590Z,92.25
2017-04-05T01:57:44.590Z,92.27
2017-04-05T01:58:38.673Z,92.32
2017-04-05T01:59:33.665Z,92.34
2017-04-05T02:00:33.687Z,92.40
2017-04-05T02:01:27.745Z,92.44
2017-04-05T02:02:21.757Z,92.45
2017-04-05T02:03:15.810Z,92.47
2017-04-05T02:04:09.883Z,92.49
2017-04-05T02:05:04.874Z,92.52
2017-04-05T02:05:58.881Z,92.52
2017-04-05T02:06:59.932Z,92.51
2017-04-05T02:07:54.980Z,92.50
2017-04-05T02:08:54.948Z,92.49
2017-04-05T02:09:50.086Z,92.48
2017-04-05T02:10:45.028Z,92.47
2017-04-05T02:11:39.074Z,92.51
2017-04-05T02:12:33.181Z,92.51
2017-04-05T02:13:33.147Z,92.49
2017-04-05T02:14:27.183Z,92.44
2017-04-05T02:15:33.207Z,92.42
2017-04-05T02:16:27.226Z,92.38
2017-04-05T02:17:22.226Z,92.38
2017-04-05T02:18:16.228Z,92.39
2017-04-05T02:19:16.302Z,92.47
2017-04-05T02:20:10.381Z,92.49
2017-04-05T02:21:10.372Z,92.51
2017-04-05T02:22:05.365Z,92.51
2017-04-05T02:22:54.396Z,92.51
2017-04-05T02:24:00.428Z,92.49
2017-04-05T02:24:49.431Z,92.52
2017-04-05T02:25:43.756Z,92.52
2017-04-05T02:26:37.549Z,92.57
2017-04-05T02:27:37.562Z,92.62
2017-04-05T02:28:31.579Z,92.62
2017-04-05T02:29:31.703Z,92.64
2017-04-05T02:30:26.641Z,92.62
2017-04-05T02:31:21.725Z,92.62
2017-04-05T02:32:21.759Z,92.62
2017-04-05T02:33:16.745Z,92.61
2017-04-05T02:34:11.783Z,92.68
2017-04-05T02:35:11.795Z,92.69
2017-04-05T02:36:06.852Z,92.69
2017-04-05T02:37:01.880Z,92.66
2017-04-05T02:38:02.876Z,92.68
2017-04-05T02:39:02.899Z,92.66
2017-04-05T02:40:02.905Z,92.68
2017-04-05T02:40:57.973Z,92.73
2017-04-05T02:41:52.037Z,92.74
2017-04-05T02:42:52.999Z,92.76
2017-04-05T02:43:53.051Z,92.75
2017-04-05T02:44:53.078Z,92.75
2017-04-05T02:45:48.071Z,92.76
2017-04-05T02:46:42.149Z,92.75
2017-04-05T02:47:42.157Z,92.76
2017-04-05T02:48:37.180Z,92.80
2017-04-05T02:49:32.255Z,92.79
2017-04-05T02:50:33.270Z,92.78
2017-04-05T02:51:33.290Z,92.74
2017-04-05T02:52:33.293Z,92.75
2017-04-05T02:53:28.297Z,92.74
2017-04-05T02:54:22.399Z,92.73
2017-04-05T02:55:23.399Z,92.72
2017-04-05T02:56:24.395Z,92.71
2017-04-05T02:57:19.435Z,92.65
2017-04-05T02:58:13.600Z,92.61
2017-04-05T02:59:13.509Z,92.60
2017-04-05T03:00:08.543Z,92.61
2017-04-05T03:01:14.503Z,92.61
2017-04-05T03:02:09.565Z,92.61
2017-04-05T03:03:03.589Z,92.64
2017-04-05T03:04:03.672Z,92.65
2017-04-05T03:05:03.672Z,92.68
2017-04-05T03:06:03.688Z,92.68
2017-04-05T03:07:04.690Z,92.67
2017-04-05T03:08:05.743Z,92.63
2017-04-05T03:08:59.794Z,92.66
2017-04-05T03:09:59.794Z,92.61
2017-04-05T03:10:54.808Z,92.63
2017-04-05T03:11:49.884Z,92.61
2017-04-05T03:12:49.867Z,92.61
2017-04-05T03:13:44.890Z,92.58
2017-04-05T03:14:39.982Z,92.60
2017-04-05T03:15:39.972Z,92.62
2017-04-05T03:16:35.093Z,92.67
2017-04-05T03:17:30.023Z,92.72
2017-04-05T03:18:31.019Z,92.69
2017-04-05T03:19:32.133Z,92.70
2017-04-05T03:20:27.095Z,92.69
2017-04-05T03:21:21.207Z,92.68
2017-04-05T03:22:21.141Z,92.67
2017-04-05T03:23:21.231Z,92.68
2017-04-05T03:24:16.266Z,92.69
2017-04-05T03:25:10.306Z,92.68
2017-04-05T03:26:10.305Z,92.69
2017-04-05T03:27:05.304Z,92.68
2017-04-05T03:28:00.396Z,92.70
2017-04-05T03:29:01.316Z,92.71
2017-04-05T03:30:01.395Z,92.71
2017-04-05T03:31:01.607Z,92.73
2017-04-05T03:31:56.457Z,92.75
2017-04-05T03:32:50.497Z,92.71
2017-04-05T03:33:50.531Z,92.69
2017-04-05T03:34:45.505Z,92.71
2017-04-05T03:35:45.510Z,92.74
2017-04-05T03:36:45.571Z,92.77
2017-04-05T03:37:45.622Z,92.79
2017-04-05T03:38:39.581Z,92.76
2017-04-05T03:39:39.672Z,92.76
2017-04-05T03:40:34.670Z,92.78
2017-04-05T03:41:34.726Z,92.76
2017-04-05T03:42:28.747Z,92.75
2017-04-05T03:43:28.796Z,92.75
2017-04-05T03:44:23.785Z,92.76
2017-04-05T03:45:18.781Z,92.76
2017-04-05T03:46:18.870Z,92.75
2017-04-05T03:47:14.268Z,92.77
2017-04-05T03:48:08.896Z,92.78
2017-04-05T03:49:09.908Z,92.76
2017-04-05T03:50:09.976Z,92.78
2017-04-05T03:51:09.988Z,92.80
2017-04-05T03:52:09.979Z,92.78
2017-04-05T03:53:11.031Z,92.80
2017-04-05T03:54:12.123Z,92.83
2017-04-05T03:55:12.136Z,92.82
2017-04-05T03:56:19.075Z,92.82
2017-04-05T03:57:19.101Z,92.82
2017-04-05T03:58:19.146Z,92.81
2017-04-05T03:59:13.183Z,92.81
2017-04-05T04:00:13.175Z,92.81
2017-04-05T04:01:08.218Z,92.84
2017-04-05T04:02:03.295Z,92.87
2017-04-05T04:03:04.246Z,92.88
2017-04-05T04:04:04.274Z,92.91
2017-04-05T04:05:04.348Z,92.89
2017-04-05T04:05:59.354Z,92.90
2017-04-05T04:06:53.403Z,92.92
2017-04-05T04:07:54.377Z,92.92
2017-04-05T04:08:54.443Z,92.90
2017-04-05T04:09:54.478Z,92.90
2017-04-05T04:10:49.519Z,92.90
2017-04-05T04:11:43.641Z,92.89
2017-04-05T04:12:43.701Z,92.89
2017-04-05T04:13:38.568Z,92.87
2017-04-05T04:14:33.611Z,92.87
2017-04-05T04:15:34.658Z,92.84
2017-04-05T04:16:34.679Z,92.84
2017-04-05T04:17:34.677Z,92.79
2017-04-05T04:18:29.695Z,92.79
2017-04-05T04:19:23.777Z,92.75
2017-04-05T04:20:23.760Z,92.73
2017-04-05T04:21:18.859Z,92.71
2017-04-05T04:22:18.891Z,92.67
2017-04-05T04:23:12.868Z,92.64
2017-04-05T04:24:12.966Z,92.60
2017-04-05T04:25:08.162Z,92.57
2017-04-05T04:26:02.925Z,92.58
2017-04-05T04:27:02.981Z,92.54
2017-04-05T04:27:58.031Z,92.49
2017-04-05T04:28:53.041Z,92.46
2017-04-05T04:29:54.056Z,92.43
2017-04-05T04:30:54.092Z,92.39
2017-04-05T04:31:54.213Z,92.38
2017-04-05T04:32:54.088Z,92.38
2017-04-05T04:33:54.170Z,92.35
2017-04-05T04:34:54.176Z,92.37
2017-04-05T04:35:54.234Z,92.33
2017-04-05T04:36:54.317Z,92.34
2017-04-05T04:37:54.256Z,92.35
2017-04-05T04:38:54.277Z,92.37
2017-04-05T04:39:54.294Z,92.33
2017-04-05T04:40:54.351Z,92.35
2017-04-05T04:41:54.454Z,92.37
2017-04-05T04:42:54.527Z,92.37
2017-04-05T04:43:54.383Z,92.38
2017-04-05T04:44:54.448Z,92.33
2017-04-05T04:45:54.464Z,92.33
2017-04-05T04:46:54.492Z,92.33
2017-04-05T04:47:54.501Z,92.35
2017-04-05T04:48:54.582Z,92.32
2017-04-05T04:49:54.576Z,92.29
2017-04-05T04:50:54.621Z,92.30
2017-04-05T04:51:54.709Z,92.31
2017-04-05T04:52:55.650Z,92.26
2017-04-05T04:53:50.673Z,92.25
2017-04-05T04:54:44.758Z,92.26
2017-04-05T04:55:45.743Z,92.26
2017-04-05T04:56:40.777Z,92.27
2017-04-05T04:57:40.776Z,92.32
2017-04-05T04:58:40.816Z,92.33
2017-04-05T04:59:40.953Z,92.34
2017-04-05T05:00:40.870Z,92.39
2017-04-05T05:01:40.905Z,92.42
2017-04-05T05:02:40.890Z,92.48
2017-04-05T05:03:40.992Z,92.55
2017-04-05T05:04:40.968Z,92.60
2017-04-05T05:05:40.993Z,92.66
2017-04-05T05:06:40.996Z,92.75
2017-04-05T05:07:41.015Z,92.80
2017-04-05T05:08:41.074Z,92.86
2017-04-05T05:09:41.098Z,92.93
2017-04-05T05:10:41.140Z,92.96
2017-04-05T05:11:41.176Z,92.98
2017-04-05T05:12:41.407Z,93.02
2017-04-05T05:13:41.201Z,92.99
2017-04-05T05:14:41.244Z,92.99
2017-04-05T05:15:41.292Z,92.95
2017-04-05T05:16:41.289Z,92.91
2017-04-05T05:17:41.317Z,92.89
2017-04-05T05:18:41.367Z,92.92
2017-04-05T05:19:41.377Z,92.85
2017-04-05T05:20:41.377Z,92.77
2017-04-05T05:21:41.394Z,92.72
2017-04-05T05:22:29.459Z,92.63
2017-04-05T05:23:24.524Z,92.53
2017-04-05T05:24:24.499Z,92.32
2017-04-05T05:25:18.509Z,92.20
2017-04-05T05:26:13.564Z,92.08
2017-04-05T05:27:09.021Z,91.92
2017-04-05T05:28:02.690Z,91.71
2017-04-05T05:29:03.711Z,91.51
2017-04-05T05:29:58.791Z,91.42
2017-04-05T05:30:52.731Z,91.26
2017-04-05T05:31:46.780Z,91.07
2017-04-05T05:32:46.791Z,90.90
2017-04-05T05:33:40.817Z,90.86
2017-04-05T05:34:40.877Z,90.87
2017-04-05T05:35:34.900Z,90.88
2017-04-05T05:36:34.918Z,90.87
2017-04-05T05:37:28.992Z,90.85
2017-04-05T05:38:16.992Z,90.87
2017-04-05T05:39:11.100Z,90.79
2017-04-05T05:40:11.044Z,90.69
2017-04-05T05:41:05.070Z,90.66
2017-04-05T05:41:59.094Z,90.69
2017-04-05T05:42:48.174Z,90.68
2017-04-05T05:43:42.197Z,90.67
2017-04-05T05:44:36.198Z,90.68
2017-04-05T05:45:36.268Z,90.68
2017-04-05T05:46:24.346Z,90.68
2017-04-05T05:47:19.288Z,90.69
2017-04-05T05:48:19.369Z,90.65
2017-04-05T05:49:13.343Z,90.69
2017-04-05T05:50:14.412Z,90.81
2017-04-05T05:51:09.800Z,90.81
2017-04-05T05:52:09.496Z,90.85
2017-04-05T05:53:09.865Z,90.88
2017-04-05T05:54:09.537Z,90.87
2017-04-05T05:55:09.542Z,90.88
2017-04-05T05:56:09.568Z,90.70
2017-04-05T05:57:10.004Z,90.37
2017-04-05T05:58:09.787Z,90.21
2017-04-05T05:59:10.027Z,90.15
2017-04-05T06:00:09.720Z,90.06
2017-04-05T06:01:10.117Z,90.01
2017-04-05T06:02:03.797Z,89.99
2017-04-05T06:02:57.888Z,89.88
2017-04-05T06:03:52.925Z,89.19
2017-04-05T06:04:47.913Z,88.85
2017-04-05T06:05:35.900Z,88.95
2017-04-05T06:06:35.918Z,88.94
2017-04-05T06:07:24.943Z,88.73
2017-04-05T06:08:19.989Z,88.82
2017-04-05T06:09:13.995Z,88.92
2017-04-05T06:10:14.087Z,89.02
2017-04-05T06:11:09.452Z,89.02
2017-04-05T06:12:09.146Z,88.90
2017-04-05T06:13:09.433Z,88.96
2017-04-05T06:14:09.443Z,88.92
2017-04-05T06:15:03.221Z,88.98
2017-04-05T06:16:03.287Z,88.77
2017-04-05T06:16:58.285Z,88.65
2017-04-05T06:17:53.361Z,88.53
2017-04-05T06:18:53.459Z,88.77
2017-04-05T06:19:53.880Z,88.77
2017-04-05T06:20:53.398Z,88.43
2017-04-05T06:21:53.430Z,88.47
2017-04-05T06:22:47.489Z,88.57
2017-04-05T06:23:47.494Z,88.43
2017-04-05T06:24:42.569Z,88.21
2017-04-05T06:25:37.874Z,87.96
2017-04-05T06:26:31.607Z,87.72
2017-04-05T06:27:31.662Z,87.31
2017-04-05T06:28:26.668Z,86.23
2017-04-05T06:29:26.697Z,85.94
2017-04-05T06:30:21.767Z,85.70
2017-04-05T06:31:15.744Z,85.19
2017-04-05T06:32:09.822Z,84.95
2017-04-05T06:33:03.870Z,83.90
2017-04-05T06:33:57.895Z,83.23
2017-04-05T06:34:47.040Z,82.32
2017-04-05T06:35:40.972Z,81.96
2017-04-05T06:36:47.368Z,81.81
2017-04-05T06:37:42.117Z,81.74
2017-04-05T06:38:36.068Z,82.09
2017-04-05T06:39:25.073Z,81.95
2017-04-05T06:40:25.163Z,82.11
2017-04-05T06:41:19.225Z,82.17
2017-04-05T06:42:08.288Z,82.40
2017-04-05T06:42:56.262Z,82.63
2017-04-05T06:43:56.273Z,82.10
2017-04-05T06:44:51.346Z,81.69
2017-04-05T06:45:45.382Z,81.51
2017-04-05T06:46:40.373Z,81.59
2017-04-05T06:47:29.481Z,81.50
2017-04-05T06:48:24.492Z,81.45
2017-04-05T06:49:19.458Z,81.05
2017-04-05T06:50:13.594Z,81.26
2017-04-05T06:51:13.999Z,81.36
2017-04-05T06:52:07.680Z,81.65
2017-04-05T06:53:02.775Z,81.83
2017-04-05T06:54:03.712Z,82.00
2017-04-05T06:54:58.749Z,82.32
2017-04-05T06:55:58.793Z,82.10
2017-04-05T06:56:58.828Z,82.08
2017-04-05T06:57:53.845Z,81.93
2017-04-05T06:58:47.888Z,81.95
2017-04-05T06:59:41.931Z,82.26
2017-04-05T07:00:30.966Z,82.32
2017-04-05T07:01:19.941Z,82.58
2017-04-05T07:02:14.141Z,82.88
2017-04-05T07:03:14.475Z,83.30
2017-04-05T07:04:08.149Z,82.84
2017-04-05T07:04:56.171Z,82.71
2017-04-05T07:05:45.224Z,82.88
2017-04-05T07:06:33.286Z,83.00
2017-04-05T07:07:22.326Z,83.17
2017-04-05T07:08:17.394Z,83.41
2017-04-05T07:09:11.640Z,83.59
2017-04-05T07:10:00.404Z,83.64
2017-04-05T07:11:00.505Z,83.18
2017-04-05T07:11:55.519Z,83.08
2017-04-05T07:12:50.573Z,83.07
2017-04-05T07:13:38.586Z,83.18
2017-04-05T07:14:38.618Z,83.11
2017-04-05T07:15:32.686Z,83.31
2017-04-05T07:16:27.711Z,83.24
2017-04-05T07:17:22.718Z,83.23
2017-04-05T07:18:11.802Z,83.47
2017-04-05T07:19:11.817Z,83.70
2017-04-05T07:20:05.877Z,83.89
2017-04-05T07:20:53.892Z,83.94
2017-04-05T07:21:48.885Z,83.97
2017-04-05T07:22:42.925Z,83.99
2017-04-05T07:23:42.980Z,84.07
2017-04-05T07:24:31.032Z,84.22
2017-04-05T07:25:20.399Z,84.44
2017-04-05T07:26:20.106Z,84.59
2017-04-05T07:27:14.554Z,84.64
2017-04-05T07:28:15.183Z,84.78
2017-04-05T07:29:15.591Z,84.88
2017-04-05T07:30:03.256Z,85.10
2017-04-05T07:30:52.309Z,85.39
2017-04-05T07:31:41.400Z,85.54
2017-04-05T07:32:30.398Z,85.52
2017-04-05T07:33:24.779Z,85.32
2017-04-05T07:34:24.516Z,85.26
2017-04-05T07:35:13.614Z,84.97
2017-04-05T07:36:07.519Z,84.92
2017-04-05T07:37:02.609Z,84.98
2017-04-05T07:37:50.684Z,84.86
2017-04-05T07:38:44.693Z,84.55
2017-04-05T07:39:32.727Z,84.17
2017-04-05T07:40:27.805Z,83.98
2017-04-05T07:41:21.818Z,84.04
2017-04-05T07:42:10.863Z,84.13
2017-04-05T07:43:04.913Z,84.11
2017-04-05T07:43:59.913Z,84.01
2017-04-05T07:44:53.991Z,84.07
2017-04-05T07:45:48.004Z,84.19
2017-04-05T07:46:43.066Z,83.88
2017-04-05T07:47:31.120Z,83.68
2017-04-05T07:48:31.119Z,83.53
2017-04-05T07:49:19.082Z,83.18
2017-04-05T07:50:19.214Z,82.91
2017-04-05T07:51:08.253Z,83.04
2017-04-05T07:51:57.303Z,83.06
2017-04-05T07:52:52.337Z,82.83
2017-04-05T07:53:47.421Z,82.38
2017-04-05T07:54:47.430Z,81.79
2017-04-05T07:55:41.470Z,81.21
2017-04-05T07:56:36.493Z,80.26
2017-04-05T07:57:31.551Z,78.64
2017-04-05T07:58:25.624Z,78.08
2017-04-05T07:59:19.570Z,78.03
2017-04-05T08:00:19.677Z,78.41
2017-04-05T08:01:14.805Z,78.75
2017-04-05T08:02:09.683Z,79.48
2017-04-05T08:03:09.804Z,79.38
2017-04-05T08:04:03.805Z,79.62
2017-04-05T08:04:52.874Z,79.23
2017-04-05T08:05:40.889Z,79.11
2017-04-05T08:06:34.971Z,78.70
2017-04-05T08:07:23.990Z,77.69
2017-04-05T08:08:12.134Z,77.58
2017-04-05T08:09:06.112Z,77.37
2017-04-05T08:10:00.118Z,76.61
2017-04-05T08:11:00.173Z,76.47
2017-04-05T08:11:49.215Z,76.74
2017-04-05T08:12:38.269Z,76.51
2017-04-05T08:13:33.670Z,77.05
2017-04-05T08:14:22.393Z,78.01
2017-04-05T08:15:11.445Z,78.80
2017-04-05T08:16:06.442Z,79.94
2017-04-05T08:17:06.491Z,80.33
2017-04-05T08:18:01.519Z,80.77
2017-04-05T08:18:56.828Z,81.28
2017-04-05T08:19:45.643Z,81.52
2017-04-05T08:20:39.702Z,81.73
2017-04-05T08:21:33.726Z,82.21
2017-04-05T08:22:28.804Z,82.40
2017-04-05T08:23:28.797Z,82.72
2017-04-05T08:24:17.886Z,82.97
2017-04-05T08:25:11.866Z,82.96
2017-04-05T08:26:05.935Z,82.96
2017-04-05T08:26:53.945Z,82.70
2017-04-05T08:27:54.008Z,82.68
2017-04-05T08:28:49.023Z,82.72
2017-04-05T08:29:37.176Z,82.80
2017-04-05T08:30:32.144Z,82.73
2017-04-05T08:31:32.165Z,82.35
2017-04-05T08:32:27.266Z,82.40
2017-04-05T08:33:27.243Z,82.13
2017-04-05T08:34:21.306Z,82.10
2017-04-05T08:35:21.384Z,82.06
2017-04-05T08:36:09.407Z,82.17
2017-04-05T08:37:09.404Z,82.13
2017-04-05T08:38:03.490Z,81.90
2017-04-05T08:38:57.491Z,82.17
2017-04-05T08:39:57.560Z,82.50
2017-04-05T08:40:46.593Z,82.44
2017-04-05T08:41:46.598Z,81.97
2017-04-05T08:42:35.667Z,81.69
2017-04-05T08:43:29.721Z,81.60
2017-04-05T08:44:29.741Z,81.28
2017-04-05T08:45:18.199Z,80.96
2017-04-05T08:46:11.792Z,80.36
2017-04-05T08:47:05.883Z,79.95
2017-04-05T08:48:00.904Z,80.18
2017-04-05T08:48:48.962Z,80.17
2017-04-05T08:49:42.986Z,80.29
2017-04-05T08:50:31.390Z,80.42
2017-04-05T08:51:19.448Z,80.46
2017-04-05T08:52:13.138Z,80.62
2017-04-05T08:53:14.170Z,80.80
2017-04-05T08:54:15.241Z,80.98
2017-04-05T08:55:15.274Z,80.94
2017-04-05T08:56:10.269Z,80.36
2017-04-05T08:56:58.300Z,80.08
2017-04-05T08:57:59.400Z,79.41
2017-04-05T08:58:53.433Z,78.89
2017-04-05T08:59:47.490Z,79.16
2017-04-05T09:00:42.518Z,78.27
2017-04-05T09:01:37.183Z,78.21
2017-04-05T09:02:36.602Z,77.90
2017-04-05T09:03:24.573Z,78.15
2017-04-05T09:04:19.697Z,78.42
2017-04-05T09:05:13.717Z,77.79
2017-04-05T09:06:07.759Z,77.21
2017-04-05T09:07:01.811Z,77.42
2017-04-05T09:07:55.846Z,77.65
2017-04-05T09:08:50.892Z,77.54
2017-04-05T09:09:38.911Z,77.56
2017-04-05T09:10:38.945Z,77.15
2017-04-05T09:11:34.022Z,76.97
2017-04-05T09:12:29.094Z,77.40
2017-04-05T09:13:23.297Z,77.29
2017-04-05T09:14:23.199Z,77.57
2017-04-05T09:15:23.437Z,77.12
2017-04-05T09:16:18.185Z,76.53
2017-04-05T09:17:13.292Z,76.50
2017-04-05T09:18:07.358Z,75.67
2017-04-05T09:19:07.372Z,73.36
2017-04-05T09:20:01.402Z,72.61
2017-04-05T09:20:56.520Z,72.30
2017-04-05T09:21:50.507Z,72.46
2017-04-05T09:22:44.524Z,72.60
2017-04-05T09:23:39.875Z,71.87
2017-04-05T09:24:34.616Z,70.87
2017-04-05T09:25:29.670Z,70.13
2017-04-05T09:26:23.685Z,69.31
2017-04-05T09:27:23.988Z,69.69
2017-04-05T09:28:23.812Z,69.73
2017-04-05T09:29:24.124Z,69.77
2017-04-05T09:30:23.882Z,68.22
2017-04-05T09:31:17.920Z,68.88
2017-04-05T09:32:17.980Z,69.78
2017-04-05T09:33:11.997Z,69.23
2017-04-05T09:34:07.092Z,69.05
2017-04-05T09:35:01.087Z,66.24
2017-04-05T09:35:56.143Z,66.31
2017-04-05T09:36:45.225Z,65.22
2017-04-05T09:37:40.210Z,63.52
2017-04-05T09:38:35.318Z,62.86
2017-04-05T09:39:35.351Z,63.47
2017-04-05T09:40:29.436Z,64.74
2017-04-05T09:41:23.785Z,64.99
2017-04-05T09:42:12.484Z,65.83
2017-04-05T09:43:06.566Z,65.77
2017-04-05T09:44:06.638Z,66.92
2017-04-05T09:45:00.596Z,63.47
2017-04-05T09:45:55.666Z,63.32
2017-04-05T09:46:50.739Z,63.04
2017-04-05T09:47:45.785Z,62.95
2017-04-05T09:48:34.815Z,62.21
2017-04-05T09:49:28.820Z,59.93
2017-04-05T09:50:17.978Z,59.89
2017-04-05T09:51:17.972Z,58.99
2017-04-05T09:52:12.003Z,59.56
2017-04-05T09:53:12.143Z,58.71
2017-04-05T09:54:01.077Z,59.89
2017-04-05T09:54:55.147Z,62.62
2017-04-05T09:55:50.205Z,60.57
2017-04-05T09:56:38.282Z,59.69
2017-04-05T09:57:32.333Z,60.57
2017-04-05T09:58:32.382Z,58.73
2017-04-05T09:59:32.411Z,59.10
2017-04-05T10:00:27.476Z,60.49
2017-04-05T10:01:16.503Z,59.17
2017-04-05T10:02:10.577Z,58.93
2017-04-05T10:03:05.611Z,59.86
2017-04-05T10:04:00.703Z,61.02
2017-04-05T10:04:54.702Z,61.56
2017-04-05T10:05:48.802Z,59.77
2017-04-05T10:06:48.789Z,58.60
2017-04-05T10:07:38.027Z,61.32
2017-04-05T10:08:25.884Z,60.24
2017-04-05T10:09:27.037Z,58.64
2017-04-05T10:10:21.972Z,58.25
2017-04-05T10:11:17.137Z,56.61
2017-04-05T10:12:06.097Z,57.42
2017-04-05T10:13:00.205Z,58.10
2017-04-05T10:13:55.216Z,57.94
2017-04-05T10:14:50.367Z,59.02
2017-04-05T10:15:45.306Z,58.75
2017-04-05T10:16:39.383Z,57.49
2017-04-05T10:17:34.375Z,58.19
2017-04-05T10:18:34.496Z,57.45
2017-04-05T10:19:28.475Z,56.09
2017-04-05T10:20:23.553Z,55.89
2017-04-05T10:21:18.641Z,56.06
2017-04-05T10:22:12.670Z,59.09
2017-04-05T10:23:00.716Z,60.10
2017-04-05T10:23:54.790Z,61.21
2017-04-05T10:24:43.816Z,60.03
2017-04-05T10:25:38.903Z,59.29
2017-04-05T10:26:27.931Z,58.41
2017-04-05T10:27:21.985Z,58.65
2017-04-05T10:28:16.021Z,57.44
2017-04-05T10:29:10.389Z,56.28
2017-04-05T10:30:10.131Z,57.13
2017-04-05T10:30:59.168Z,57.55
2017-04-05T10:31:53.193Z,56.90
2017-04-05T10:32:48.276Z,56.94
2017-04-05T10:33:42.329Z,56.83
2017-04-05T10:34:31.710Z,57.81
2017-04-05T10:35:26.788Z,56.29
2017-04-05T10:36:21.515Z,57.63
2017-04-05T10:37:16.525Z,53.92
2017-04-05T10:38:10.574Z,54.60
2017-04-05T10:38:59.652Z,55.44
2017-04-05T10:39:53.997Z,54.04
2017-04-05T10:40:53.737Z,55.37
2017-04-05T10:41:47.782Z,56.02
2017-04-05T10:42:41.848Z,55.81
2017-04-05T10:43:30.853Z,56.56
2017-04-05T10:44:18.958Z,57.48
2017-04-05T10:45:13.035Z,55.33
2017-04-05T10:46:02.120Z,54.96
2017-04-05T10:46:57.165Z,56.05
2017-04-05T10:47:52.170Z,57.82
2017-04-05T10:48:52.188Z,58.38
2017-04-05T10:49:46.301Z,58.39
2017-04-05T10:50:35.349Z,58.51
2017-04-05T10:51:29.868Z,57.97
2017-04-05T10:52:18.451Z,57.95
2017-04-05T10:53:13.483Z,60.69
2017-04-05T10:54:02.513Z,59.96
2017-04-05T10:55:02.596Z,61.54
2017-04-05T10:55:56.993Z,62.28
2017-04-05T10:56:44.724Z,62.17
2017-04-05T10:57:44.754Z,62.05
2017-04-05T10:58:38.758Z,60.43
2017-04-05T10:59:32.881Z,61.83
2017-04-05T11:00:26.897Z,61.34
2017-04-05T11:01:20.939Z,61.43
2017-04-05T11:02:15.024Z,59.69
2017-04-05T11:03:15.041Z,59.22
2017-04-05T11:04:04.103Z,60.10
2017-04-05T11:04:53.156Z,60.45
2017-04-05T11:05:48.194Z,62.58
2017-04-05T11:06:36.487Z,61.30
2017-04-05T11:07:30.333Z,62.42
2017-04-05T11:08:18.372Z,61.96
2017-04-05T11:09:12.407Z,62.22
2017-04-05T11:10:06.467Z,63.65
2017-04-05T11:11:00.494Z,64.04
2017-04-05T11:11:50.073Z,63.81
2017-04-05T11:12:38.596Z,64.24
2017-04-05T11:13:32.970Z,64.86
2017-04-05T11:14:26.715Z,65.00
2017-04-05T11:15:20.809Z,64.67
2017-04-05T11:16:14.841Z,63.83
2017-04-05T11:17:08.937Z,63.22
2017-04-05T11:18:02.897Z,63.66
2017-04-05T11:18:51.981Z,64.80
2017-04-05T11:19:46.132Z,64.95
2017-04-05T11:20:35.073Z,65.35
2017-04-05T11:21:29.506Z,63.20
2017-04-05T11:22:18.221Z,61.79
2017-04-05T11:23:12.239Z,59.69
2017-04-05T11:24:07.321Z,55.87
2017-04-05T11:24:56.292Z,55.77
2017-04-05T11:25:51.373Z,54.91
2017-04-05T11:26:40.412Z,55.03
2017-04-05T11:27:34.567Z,53.10
2017-04-05T11:28:28.512Z,54.24
2017-04-05T11:29:28.928Z,54.51
2017-04-05T11:30:16.614Z,52.12
2017-04-05T11:31:10.646Z,50.02
2017-04-05T11:32:05.708Z,49.76
2017-04-05T11:32:53.802Z,51.49
2017-04-05T11:33:47.801Z,51.16
2017-04-05T11:34:47.872Z,52.78
2017-04-05T11:35:41.925Z,53.64
2017-04-05T11:36:30.948Z,56.17
2017-04-05T11:37:20.026Z,57.55
2017-04-05T11:38:15.421Z,59.95
2017-04-05T11:39:09.097Z,61.96
2017-04-05T11:39:57.193Z,61.53
2017-04-05T11:40:52.219Z,63.13
2017-04-05T11:41:41.279Z,62.50
2017-04-05T11:42:30.370Z,62.76
2017-04-05T11:43:26.019Z,63.35
2017-04-05T11:44:25.436Z,63.71
2017-04-05T11:45:19.460Z,62.98
2017-04-05T11:46:14.525Z,62.86
2017-04-05T11:47:09.614Z,62.55
2017-04-05T11:48:03.608Z,60.52
2017-04-05T11:48:59.011Z,56.63
2017-04-05T11:49:52.715Z,55.52
2017-04-05T11:50:47.776Z,53.46
2017-04-05T11:51:36.811Z,53.10
2017-04-05T11:52:31.914Z,52.26